<?xml version="1.0" encoding="UTF-8" standalone="no" ?>
<gpx xmlns="http://www.topografix.com/GPX/1/1" xmlns:xsi="http://www.w3.org/2001/XMLSchema-instance" xsi:schemaLocation="http://www.topografix.com/GPX/1/1 http://www.topografix.com/GPX/1/1/gpx.xsd" version="1.1" creator="VisuGPX - https://www.visugpx.com">
  <metadata>
    <name>Transcaucasie: Géorgie + Arménie</name>
  </metadata>
  <trk>
    <name><![CDATA[Tour d'Europe: étape 455]]></name>
    <extensions>
      <line xmlns="http://www.topografix.com/GPX/gpx_style/0/2">
        <color>888800</color>
        <width>4</width>
      </line>
    </extensions>
    <trkseg>
      <trkpt lat="41.99718" lon="43.60043">
        <ele>730.107424</ele>
        <time>2021-09-26T07:04:47.589Z</time>
      </trkpt>
      <trkpt lat="41.99637" lon="43.60143">
        <ele>729.058389</ele>
        <time>2021-09-26T07:07:49.657Z</time>
      </trkpt>
      <trkpt lat="41.99433" lon="43.60269">
        <ele>726.013236</ele>
        <time>2021-09-26T07:10:25.658Z</time>
      </trkpt>
      <trkpt lat="41.99225" lon="43.60319">
        <ele>725.726168</ele>
        <time>2021-09-26T07:33:22.667Z</time>
      </trkpt>
      <trkpt lat="41.99144" lon="43.60032">
        <ele>725.119418</ele>
        <time>2021-09-26T07:34:27.685Z</time>
      </trkpt>
      <trkpt lat="41.99178" lon="43.59778">
        <ele>720.448241</ele>
        <time>2021-09-26T07:35:30.685Z</time>
      </trkpt>
      <trkpt lat="41.99009" lon="43.59681">
        <ele>729.824445</ele>
        <time>2021-09-26T07:36:36.672Z</time>
      </trkpt>
      <trkpt lat="41.98794" lon="43.596">
        <ele>732.354747</ele>
        <time>2021-09-26T07:37:37.675Z</time>
      </trkpt>
      <trkpt lat="41.9861" lon="43.59506">
        <ele>732.915271</ele>
        <time>2021-09-26T07:38:40.663Z</time>
      </trkpt>
      <trkpt lat="41.98536" lon="43.5923">
        <ele>737.91749</ele>
        <time>2021-09-26T07:39:51.675Z</time>
      </trkpt>
      <trkpt lat="41.98461" lon="43.58941">
        <ele>737.148287</ele>
        <time>2021-09-26T07:40:51.674Z</time>
      </trkpt>
      <trkpt lat="41.98382" lon="43.58655">
        <ele>736.159639</ele>
        <time>2021-09-26T07:41:54.657Z</time>
      </trkpt>
      <trkpt lat="41.98309" lon="43.58379">
        <ele>738.617336</ele>
        <time>2021-09-26T07:42:54.683Z</time>
      </trkpt>
      <trkpt lat="41.98233" lon="43.58087">
        <ele>738.986827</ele>
        <time>2021-09-26T07:43:57.672Z</time>
      </trkpt>
      <trkpt lat="41.98157" lon="43.57815">
        <ele>740.800749</ele>
        <time>2021-09-26T07:44:57.701Z</time>
      </trkpt>
      <trkpt lat="41.98077" lon="43.57539">
        <ele>737.303319</ele>
        <time>2021-09-26T07:45:57.668Z</time>
      </trkpt>
      <trkpt lat="41.98005" lon="43.57256">
        <ele>733.551878</ele>
        <time>2021-09-26T07:47:00.661Z</time>
      </trkpt>
      <trkpt lat="41.9793" lon="43.56977">
        <ele>731.108343</ele>
        <time>2021-09-26T07:48:00.687Z</time>
      </trkpt>
      <trkpt lat="41.97853" lon="43.56696">
        <ele>729.00284</ele>
        <time>2021-09-26T07:49:03.678Z</time>
      </trkpt>
      <trkpt lat="41.9778" lon="43.56421">
        <ele>731.954075</ele>
        <time>2021-09-26T07:50:03.669Z</time>
      </trkpt>
      <trkpt lat="41.977" lon="43.56127">
        <ele>732.630268</ele>
        <time>2021-09-26T07:51:06.685Z</time>
      </trkpt>
      <trkpt lat="41.97626" lon="43.55853">
        <ele>732.253992</ele>
        <time>2021-09-26T07:52:06.704Z</time>
      </trkpt>
      <trkpt lat="41.97553" lon="43.55569">
        <ele>737.988489</ele>
        <time>2021-09-26T07:53:09.674Z</time>
      </trkpt>
      <trkpt lat="41.9748" lon="43.55293">
        <ele>742.474235</ele>
        <time>2021-09-26T07:54:09.672Z</time>
      </trkpt>
      <trkpt lat="41.97399" lon="43.55003">
        <ele>740.786072</ele>
        <time>2021-09-26T07:55:12.671Z</time>
      </trkpt>
      <trkpt lat="41.97326" lon="43.54727">
        <ele>746.436909</ele>
        <time>2021-09-26T07:56:11.686Z</time>
      </trkpt>
      <trkpt lat="41.97256" lon="43.54454">
        <ele>749.493226</ele>
        <time>2021-09-26T07:57:11.662Z</time>
      </trkpt>
      <trkpt lat="41.97183" lon="43.54172">
        <ele>752.922466</ele>
        <time>2021-09-26T07:58:14.679Z</time>
      </trkpt>
      <trkpt lat="41.97105" lon="43.53896">
        <ele>746.659548</ele>
        <time>2021-09-26T07:59:14.701Z</time>
      </trkpt>
      <trkpt lat="41.97025" lon="43.5361">
        <ele>739.659778</ele>
        <time>2021-09-26T08:00:17.673Z</time>
      </trkpt>
      <trkpt lat="41.96954" lon="43.53345">
        <ele>744.942785</ele>
        <time>2021-09-26T08:01:18.669Z</time>
      </trkpt>
      <trkpt lat="41.96878" lon="43.53067">
        <ele>746.437036</ele>
        <time>2021-09-26T08:02:21.658Z</time>
      </trkpt>
      <trkpt lat="41.96803" lon="43.52797">
        <ele>738.995035</ele>
        <time>2021-09-26T08:03:22.701Z</time>
      </trkpt>
      <trkpt lat="41.96729" lon="43.52516">
        <ele>740.730248</ele>
        <time>2021-09-26T08:04:25.680Z</time>
      </trkpt>
      <trkpt lat="41.96658" lon="43.52245">
        <ele>741.541386</ele>
        <time>2021-09-26T08:05:25.656Z</time>
      </trkpt>
      <trkpt lat="41.96586" lon="43.51982">
        <ele>745.307624</ele>
        <time>2021-09-26T08:06:24.677Z</time>
      </trkpt>
      <trkpt lat="41.96476" lon="43.51699">
        <ele>747.184551</ele>
        <time>2021-09-26T08:07:28.667Z</time>
      </trkpt>
      <trkpt lat="41.96354" lon="43.51436">
        <ele>751.243857</ele>
        <time>2021-09-26T08:08:21.674Z</time>
      </trkpt>
      <trkpt lat="41.96199" lon="43.51168">
        <ele>752.29828</ele>
        <time>2021-09-26T08:09:24.665Z</time>
      </trkpt>
      <trkpt lat="41.95998" lon="43.51034">
        <ele>750.266523</ele>
        <time>2021-09-26T08:10:23.675Z</time>
      </trkpt>
      <trkpt lat="41.95793" lon="43.50904">
        <ele>742.492247</ele>
        <time>2021-09-26T08:21:15.679Z</time>
      </trkpt>
      <trkpt lat="41.95588" lon="43.50866">
        <ele>742.500737</ele>
        <time>2021-09-26T08:22:16.659Z</time>
      </trkpt>
      <trkpt lat="41.95342" lon="43.50898">
        <ele>747.540283</ele>
        <time>2021-09-26T08:23:18.681Z</time>
      </trkpt>
      <trkpt lat="41.95123" lon="43.50956">
        <ele>749.695044</ele>
        <time>2021-09-26T08:24:15.708Z</time>
      </trkpt>
      <trkpt lat="41.94912" lon="43.5102">
        <ele>750.518419</ele>
        <time>2021-09-26T08:25:19.679Z</time>
      </trkpt>
      <trkpt lat="41.94704" lon="43.51022">
        <ele>753.986741</ele>
        <time>2021-09-26T08:26:33.686Z</time>
      </trkpt>
      <trkpt lat="41.94527" lon="43.50867">
        <ele>752.774192</ele>
        <time>2021-09-26T08:28:00.679Z</time>
      </trkpt>
      <trkpt lat="41.94319" lon="43.5063">
        <ele>747.573694</ele>
        <time>2021-09-26T08:28:43.700Z</time>
      </trkpt>
      <trkpt lat="41.94126" lon="43.5049">
        <ele>755.867163</ele>
        <time>2021-09-26T08:29:47.686Z</time>
      </trkpt>
      <trkpt lat="41.93966" lon="43.50308">
        <ele>763.232877</ele>
        <time>2021-09-26T08:31:20.680Z</time>
      </trkpt>
      <trkpt lat="41.93856" lon="43.50052">
        <ele>767.670363</ele>
        <time>2021-09-26T08:32:22.695Z</time>
      </trkpt>
      <trkpt lat="41.93777" lon="43.49724">
        <ele>764.270936</ele>
        <time>2021-09-26T08:33:11.677Z</time>
      </trkpt>
      <trkpt lat="41.93739" lon="43.49422">
        <ele>768.663827</ele>
        <time>2021-09-26T08:34:04.706Z</time>
      </trkpt>
      <trkpt lat="41.93712" lon="43.4912">
        <ele>771.179111</ele>
        <time>2021-09-26T08:35:04.673Z</time>
      </trkpt>
      <trkpt lat="41.93622" lon="43.48851">
        <ele>763.868651</ele>
        <time>2021-09-26T08:35:57.678Z</time>
      </trkpt>
      <trkpt lat="41.93485" lon="43.4861">
        <ele>763.14388</ele>
        <time>2021-09-26T08:36:50.675Z</time>
      </trkpt>
      <trkpt lat="41.93345" lon="43.48383">
        <ele>760.224402</ele>
        <time>2021-09-26T08:38:13.684Z</time>
      </trkpt>
      <trkpt lat="41.93155" lon="43.48234">
        <ele>758.325683</ele>
        <time>2021-09-26T08:39:07.688Z</time>
      </trkpt>
      <trkpt lat="41.9292" lon="43.48279">
        <ele>758.463381</ele>
        <time>2021-09-26T08:40:05.691Z</time>
      </trkpt>
      <trkpt lat="41.92717" lon="43.4835">
        <ele>763.281336</ele>
        <time>2021-09-26T08:41:17.684Z</time>
      </trkpt>
      <trkpt lat="41.92514" lon="43.48478">
        <ele>759.741325</ele>
        <time>2021-09-26T08:42:22.695Z</time>
      </trkpt>
      <trkpt lat="41.92294" lon="43.48519">
        <ele>761.081581</ele>
        <time>2021-09-26T08:43:15.669Z</time>
      </trkpt>
      <trkpt lat="41.9208" lon="43.48467">
        <ele>762.425813</ele>
        <time>2021-09-26T08:44:15.688Z</time>
      </trkpt>
      <trkpt lat="41.91879" lon="43.48374">
        <ele>771.307954</ele>
        <time>2021-09-26T08:45:36.694Z</time>
      </trkpt>
      <trkpt lat="41.91702" lon="43.48259">
        <ele>781.203179</ele>
        <time>2021-09-26T08:47:32.728Z</time>
      </trkpt>
      <trkpt lat="41.91637" lon="43.47989">
        <ele>786.845686</ele>
        <time>2021-09-26T08:48:39.688Z</time>
      </trkpt>
      <trkpt lat="41.91526" lon="43.47746">
        <ele>779.748597</ele>
        <time>2021-09-26T08:49:46.674Z</time>
      </trkpt>
      <trkpt lat="41.91385" lon="43.47366">
        <ele>773.436218</ele>
        <time>2021-09-26T08:50:29.686Z</time>
      </trkpt>
      <trkpt lat="41.91189" lon="43.4722">
        <ele>769.943097</ele>
        <time>2021-09-26T08:51:19.687Z</time>
      </trkpt>
      <trkpt lat="41.90963" lon="43.47164">
        <ele>770.060613</ele>
        <time>2021-09-26T08:52:21.674Z</time>
      </trkpt>
      <trkpt lat="41.9078" lon="43.47151">
        <ele>778.74911</ele>
        <time>2021-09-26T08:54:20.723Z</time>
      </trkpt>
      <trkpt lat="41.90652" lon="43.4692">
        <ele>793.664304</ele>
        <time>2021-09-26T08:55:53.679Z</time>
      </trkpt>
      <trkpt lat="41.90606" lon="43.46617">
        <ele>791.778029</ele>
        <time>2021-09-26T08:56:33.679Z</time>
      </trkpt>
      <trkpt lat="41.90595" lon="43.46223">
        <ele>787.661681</ele>
        <time>2021-09-26T08:57:13.737Z</time>
      </trkpt>
      <trkpt lat="41.90561" lon="43.4592">
        <ele>787.872117</ele>
        <time>2021-09-26T08:58:13.688Z</time>
      </trkpt>
      <trkpt lat="41.90414" lon="43.45708">
        <ele>789.402552</ele>
        <time>2021-09-26T08:59:02.727Z</time>
      </trkpt>
      <trkpt lat="41.90219" lon="43.45564">
        <ele>778.942199</ele>
        <time>2021-09-26T09:00:06.666Z</time>
      </trkpt>
      <trkpt lat="41.90018" lon="43.45483">
        <ele>769.967958</ele>
        <time>2021-09-26T09:01:10.714Z</time>
      </trkpt>
      <trkpt lat="41.89826" lon="43.45305">
        <ele>773.26665</ele>
        <time>2021-09-26T09:02:12.711Z</time>
      </trkpt>
      <trkpt lat="41.89705" lon="43.45098">
        <ele>785.917493</ele>
        <time>2021-09-26T09:04:12.687Z</time>
      </trkpt>
      <trkpt lat="41.89555" lon="43.44849">
        <ele>788.228414</ele>
        <time>2021-09-26T09:05:23.738Z</time>
      </trkpt>
      <trkpt lat="41.89491" lon="43.44547">
        <ele>793.353489</ele>
        <time>2021-09-26T09:06:22.678Z</time>
      </trkpt>
      <trkpt lat="41.89611" lon="43.44306">
        <ele>805.123651</ele>
        <time>2021-09-26T09:07:27.683Z</time>
      </trkpt>
      <trkpt lat="41.8963" lon="43.4397">
        <ele>800.093144</ele>
        <time>2021-09-26T09:08:10.690Z</time>
      </trkpt>
      <trkpt lat="41.89438" lon="43.43816">
        <ele>782.848288</ele>
        <time>2021-09-26T09:22:51.709Z</time>
      </trkpt>
      <trkpt lat="41.89235" lon="43.43726">
        <ele>779.686331</ele>
        <time>2021-09-26T09:24:24.691Z</time>
      </trkpt>
      <trkpt lat="41.89053" lon="43.43594">
        <ele>786.225272</ele>
        <time>2021-09-26T09:25:38.688Z</time>
      </trkpt>
      <trkpt lat="41.88848" lon="43.43452">
        <ele>792.542479</ele>
        <time>2021-09-26T09:26:28.694Z</time>
      </trkpt>
      <trkpt lat="41.88666" lon="43.43322">
        <ele>795.031498</ele>
        <time>2021-09-26T09:27:22.702Z</time>
      </trkpt>
      <trkpt lat="41.88433" lon="43.43177">
        <ele>789.97043</ele>
        <time>2021-09-26T09:28:07.710Z</time>
      </trkpt>
      <trkpt lat="41.8823" lon="43.43057">
        <ele>787.159144</ele>
        <time>2021-09-26T09:28:56.701Z</time>
      </trkpt>
      <trkpt lat="41.88026" lon="43.43003">
        <ele>791.902402</ele>
        <time>2021-09-26T09:30:02.695Z</time>
      </trkpt>
      <trkpt lat="41.87835" lon="43.4285">
        <ele>783.307028</ele>
        <time>2021-09-26T09:30:57.694Z</time>
      </trkpt>
      <trkpt lat="41.87803" lon="43.42573">
        <ele>788.239375</ele>
        <time>2021-09-26T09:31:52.701Z</time>
      </trkpt>
      <trkpt lat="41.87815" lon="43.42289">
        <ele>800.489899</ele>
        <time>2021-09-26T09:33:16.692Z</time>
      </trkpt>
      <trkpt lat="41.87709" lon="43.42069">
        <ele>810.516367</ele>
        <time>2021-09-26T09:34:51.697Z</time>
      </trkpt>
      <trkpt lat="41.87548" lon="43.4184">
        <ele>802.951893</ele>
        <time>2021-09-26T09:35:50.678Z</time>
      </trkpt>
      <trkpt lat="41.87329" lon="43.41994">
        <ele>796.569177</ele>
        <time>2021-09-26T09:36:35.701Z</time>
      </trkpt>
      <trkpt lat="41.87117" lon="43.42074">
        <ele>800.249656</ele>
        <time>2021-09-26T09:37:45.704Z</time>
      </trkpt>
      <trkpt lat="41.8701" lon="43.41862">
        <ele>821.502707</ele>
        <time>2021-09-26T09:39:51.703Z</time>
      </trkpt>
      <trkpt lat="41.86983" lon="43.41594">
        <ele>811.288024</ele>
        <time>2021-09-26T09:41:21.684Z</time>
      </trkpt>
      <trkpt lat="41.86839" lon="43.4129">
        <ele>805.70563</ele>
        <time>2021-09-26T09:42:03.752Z</time>
      </trkpt>
      <trkpt lat="41.86661" lon="43.41071">
        <ele>811.040142</ele>
        <time>2021-09-26T09:43:09.688Z</time>
      </trkpt>
      <trkpt lat="41.86465" lon="43.41102">
        <ele>815.113163</ele>
        <time>2021-09-26T09:44:33.719Z</time>
      </trkpt>
      <trkpt lat="41.86267" lon="43.41266">
        <ele>810.312676</ele>
        <time>2021-09-26T09:45:26.675Z</time>
      </trkpt>
      <trkpt lat="41.86047" lon="43.41411">
        <ele>796.131526</ele>
        <time>2021-09-26T09:46:18.729Z</time>
      </trkpt>
      <trkpt lat="41.85855" lon="43.41546">
        <ele>801.721332</ele>
        <time>2021-09-26T09:47:20.703Z</time>
      </trkpt>
      <trkpt lat="41.85686" lon="43.41411">
        <ele>814.578128</ele>
        <time>2021-09-26T09:49:16.708Z</time>
      </trkpt>
      <trkpt lat="41.85477" lon="43.4134">
        <ele>822.931859</ele>
        <time>2021-09-26T09:50:23.703Z</time>
      </trkpt>
      <trkpt lat="41.85262" lon="43.41325">
        <ele>821.249856</ele>
        <time>2021-09-26T09:51:43.720Z</time>
      </trkpt>
      <trkpt lat="41.85051" lon="43.41289">
        <ele>813.08355</ele>
        <time>2021-09-26T09:52:36.690Z</time>
      </trkpt>
      <trkpt lat="41.8492" lon="43.41101">
        <ele>803.268513</ele>
        <time>2021-09-26T09:52:57.681Z</time>
      </trkpt>
      <trkpt lat="41.84836" lon="43.40775">
        <ele>796.075707</ele>
        <time>2021-09-26T09:53:40.698Z</time>
      </trkpt>
      <trkpt lat="41.84784" lon="43.40482">
        <ele>804.549469</ele>
        <time>2021-09-26T09:54:41.697Z</time>
      </trkpt>
      <trkpt lat="41.84681" lon="43.4022">
        <ele>815.465119</ele>
        <time>2021-09-26T09:55:49.671Z</time>
      </trkpt>
      <trkpt lat="41.8462" lon="43.39956">
        <ele>804.426845</ele>
        <time>2021-09-26T09:56:35.667Z</time>
      </trkpt>
      <trkpt lat="41.84527" lon="43.39672">
        <ele>808.305498</ele>
        <time>2021-09-26T09:57:30.698Z</time>
      </trkpt>
      <trkpt lat="41.84416" lon="43.39417">
        <ele>821.790476</ele>
        <time>2021-09-26T09:58:25.720Z</time>
      </trkpt>
      <trkpt lat="41.84322" lon="43.3914">
        <ele>824.039252</ele>
        <time>2021-09-26T09:59:23.694Z</time>
      </trkpt>
      <trkpt lat="41.84259" lon="43.38856">
        <ele>815.551235</ele>
        <time>2021-09-26T10:00:19.687Z</time>
      </trkpt>
      <trkpt lat="41.84269" lon="43.38573">
        <ele>815.918123</ele>
        <time>2021-09-26T10:01:13.718Z</time>
      </trkpt>
      <trkpt lat="41.84305" lon="43.38294">
        <ele>821.264243</ele>
        <time>2021-09-26T10:02:14.692Z</time>
      </trkpt>
      <trkpt lat="41.84189" lon="43.38044">
        <ele>826.705049</ele>
        <time>2021-09-26T10:03:13.696Z</time>
      </trkpt>
      <trkpt lat="41.84178" lon="43.37928">
        <ele>819.040664</ele>
        <time>2021-09-26T10:06:02.683Z</time>
      </trkpt>
      <trkpt lat="41.84245" lon="43.38035">
        <ele>819.040664</ele>
        <time>2021-09-26T10:07:24.424Z</time>
      </trkpt>
    </trkseg>
  </trk>
</gpx>